Time;durP1;ratioP1;P1;durP2;ratioP2;P2;SDS_P1;SDS_P2;PMS_P1;PMS_P2;Temp;Humidity;BMP_temperature;BMP_pressure;BME280_temperature;BME280_humidity;BME280_pressure;Samples;Min_cycle;Max_cycle;Signal;HPM_P1;HPM_P2
2024/03/30 00:02:16;;;;;;;;;;;;;;;11.99;61.33;96314.16;5061408;28;19924;-86
2024/03/30 00:05:06;;;;;;;;;;;;;;;11.98;59.29;96311.75;5070054;28;20034;-86
2024/03/30 00:07:53;;;;;;;;;;;;;;;12.05;59.14;96311.91;5059948;28;19924;-86
2024/03/30 00:10:40;;;;;;;;;;;;;;;12.07;58.93;96307.69;5069794;28;19924;-87
2024/03/30 00:13:26;;;;;;;;;;;;;;;12.10;58.35;96310.84;5055699;28;20065;-86
2024/03/30 00:16:15;;;;;;;;;;;;;;;12.12;57.89;96320.22;5053580;28;20303;-86
2024/03/30 00:19:03;;;;;;;;;;;;;;;12.14;57.14;96314.41;5067535;28;20061;-85
2024/03/30 00:21:51;;;;;;;;;;;;;;;12.12;57.44;96306.59;5062348;28;19924;-86
2024/03/30 00:24:39;;;;;;;;;;;;;;;12.16;56.65;96321.06;5056663;28;20877;-86
2024/03/30 00:27:26;;;;;;;;;;;;;;;12.18;56.76;96326.16;5055297;28;19932;-86
2024/03/30 00:30:13;;;;;;;;;;;;;;;12.17;56.29;96317.19;5061449;28;19977;-86
2024/03/30 00:33:02;;;;;;;;;;;;;;;12.21;55.85;96328.16;5055874;28;20011;-87
2024/03/30 00:35:48;;;;;;;;;;;;;;;12.21;55.07;96328.16;5064778;28;19936;-87
2024/03/30 00:38:37;;;;;;;;;;;;;;;12.24;55.32;96320.06;5071653;28;19928;-87
2024/03/30 00:41:23;;;;;;;;;;;;;;;12.23;54.53;96321.19;5054731;28;20411;-86
2024/03/30 00:44:10;;;;;;;;;;;;;;;12.23;54.31;96325.88;5064326;28;19950;-86
2024/03/30 00:46:56;;;;;;;;;;;;;;;12.26;54.00;96333.31;5059284;28;19924;-87
2024/03/30 00:49:45;;;;;;;;;;;;;;;12.27;53.80;96329.44;5045837;28;19924;-86
2024/03/30 00:52:31;;;;;;;;;;;;;;;12.32;53.62;96329.16;5070815;28;20277;-86
2024/03/30 00:55:19;;;;;;;;;;;;;;;12.34;53.85;96335.00;5063063;28;20019;-86
2024/03/30 00:58:07;;;;;;;;;;;;;;;12.35;53.82;96333.06;5054873;28;19938;-86
2024/03/30 01:00:54;;;;;;;;;;;;;;;12.33;54.36;96331.50;5052524;28;20687;-86
2024/03/30 01:03:42;;;;;;;;;;;;;;;12.33;53.56;96334.22;5065271;28;19932;-86
2024/03/30 01:06:31;;;;;;;;;;;;;;;12.34;53.22;96326.84;5052104;28;19936;-87
2024/03/30 01:09:18;;;;;;;;;;;;;;;12.36;53.28;96329.19;5074532;28;19959;-86
2024/03/30 01:12:05;;;;;;;;;;;;;;;12.33;53.54;96341.63;5052734;28;20287;-87
2024/03/30 01:14:52;;;;;;;;;;;;;;;12.34;53.46;96326.84;5079270;28;19960;-86
2024/03/30 01:17:41;;;;;;;;;;;;;;;12.35;52.52;96333.88;5085978;28;23352;-86
2024/03/30 01:20:28;;;;;;;;;;;;;;;12.33;52.84;96330.72;5068337;28;19934;-86
2024/03/30 01:23:17;;;;;;;;;;;;;;;12.32;52.68;96326.44;5069012;28;19928;-86
2024/03/30 01:26:03;;;;;;;;;;;;;;;12.30;55.00;96323.25;5074236;28;19924;-86
2024/03/30 01:28:51;;;;;;;;;;;;;;;12.30;53.04;96336.88;5063076;28;19963;-86
2024/03/30 01:31:37;;;;;;;;;;;;;;;12.28;52.44;96331.81;5054736;28;20363;-86
2024/03/30 01:34:25;;;;;;;;;;;;;;;12.30;52.01;96329.53;5052905;28;19973;-86
2024/03/30 01:37:11;;;;;;;;;;;;;;;12.32;51.47;96323.72;5056307;28;19931;-87
2024/03/30 01:40:00;;;;;;;;;;;;;;;12.26;54.23;96327.88;5055709;28;19933;-86
2024/03/30 01:42:46;;;;;;;;;;;;;;;12.27;51.88;96329.44;5068266;28;19931;-86
2024/03/30 01:45:34;;;;;;;;;;;;;;;12.25;52.41;96335.25;5065901;28;19959;-86
2024/03/30 01:48:20;;;;;;;;;;;;;;;12.30;51.34;96328.72;5065843;28;20438;-82
2024/03/30 01:51:08;;;;;;;;;;;;;;;12.31;51.30;96330.31;5066783;28;19931;-82
2024/03/30 01:53:54;;;;;;;;;;;;;;;12.30;50.42;96329.53;5057047;28;19928;-83
2024/03/30 01:56:43;;;;;;;;;;;;;;;12.29;51.62;96333.38;5071150;28;19931;-81
2024/03/30 01:59:29;;;;;;;;;;;;;;;12.26;52.40;96325.16;5050590;28;19925;-83
2024/03/30 02:02:16;;;;;;;;;;;;;;;12.29;50.91;96324.41;5067341;28;19946;-82
2024/03/30 02:05:02;;;;;;;;;;;;;;;12.32;50.91;96323.72;5066185;28;19928;-83
2024/03/30 02:07:49;;;;;;;;;;;;;;;12.29;50.55;96327.13;5056934;28;19974;-83
2024/03/30 02:10:36;;;;;;;;;;;;;;;12.30;51.27;96320.53;5066475;28;19958;-83
2024/03/30 02:13:25;;;;;;;;;;;;;;;12.27;52.08;96318.56;5071199;28;19932;-82
2024/03/30 02:16:12;;;;;;;;;;;;;;;12.23;52.31;96317.69;5061376;28;19966;-83
2024/03/30 02:19:01;;;;;;;;;;;;;;;12.17;53.27;96330.03;5074289;28;19939;-82
2024/03/30 02:21:48;;;;;;;;;;;;;;;12.19;51.51;96322.28;5063556;28;20022;-83
2024/03/30 02:24:37;;;;;;;;;;;;;;;12.10;53.11;96324.47;5071401;28;19943;-82
2024/03/30 02:27:23;;;;;;;;;;;;;;;12.11;53.76;96324.09;5076379;28;19928;-83
2024/03/30 02:30:11;;;;;;;;;;;;;;;12.11;51.86;96320.59;5081360;28;19928;-82
2024/03/30 02:32:57;;;;;;;;;;;;;;;12.08;52.63;96327.53;5074789;28;20370;-82
2024/03/30 02:35:44;;;;;;;;;;;;;;;12.06;51.12;96322.44;5070648;28;19925;-82
2024/03/30 02:38:30;;;;;;;;;;;;;;;12.06;51.66;96321.66;5053446;28;20527;-83
2024/03/30 02:41:19;;;;;;;;;;;;;;;12.03;52.70;96323.16;5071466;28;20048;-82
2024/03/30 02:44:06;;;;;;;;;;;;;;;12.05;50.91;96320.09;5056171;28;20403;-82
2024/03/30 02:46:54;;;;;;;;;;;;;;;12.07;50.49;96318.56;5053106;28;20332;-83
2024/03/30 02:49:40;;;;;;;;;;;;;;;12.06;51.66;96322.44;5076329;28;20027;-82
2024/03/30 02:52:27;;;;;;;;;;;;;;;12.07;51.40;96317.78;5067200;28;19951;-82
2024/03/30 02:55:13;;;;;;;;;;;;;;;12.05;50.96;96320.88;5060778;28;19950;-83
2024/03/30 02:58:02;;;;;;;;;;;;;;;12.06;50.35;96322.44;5080566;28;19931;-87
2024/03/30 03:00:48;;;;;;;;;;;;;;;12.06;52.59;96324.38;5061356;28;19977;-87
2024/03/30 03:03:36;;;;;;;;;;;;;;;12.03;52.78;96320.44;5056831;28;19993;-87
2024/03/30 03:06:22;;;;;;;;;;;;;;;11.99;53.02;96322.31;5068677;28;19924;-87
2024/03/30 03:09:09;;;;;;;;;;;;;;;11.98;52.47;96318.00;5062286;28;20438;-87
2024/03/30 03:11:56;;;;;;;;;;;;;;;12.00;51.15;96318.44;5059545;28;20395;-86
2024/03/30 03:14:44;;;;;;;;;;;;;;;12.01;51.46;96314.56;5060388;28;19931;-87
2024/03/30 03:17:31;;;;;;;;;;;;;;;12.01;51.22;96311.84;5058567;28;19924;-86
2024/03/30 03:20:18;;;;;;;;;;;;;;;12.05;50.12;96309.97;5060972;28;19924;-86
2024/03/30 03:23:05;;;;;;;;;;;;;;;12.02;51.80;96315.34;5061698;28;20002;-87
2024/03/30 03:25:52;;;;;;;;;;;;;;;12.01;52.83;96314.56;5055661;28;19978;-87
2024/03/30 03:28:38;;;;;;;;;;;;;;;11.99;51.28;96316.09;5073271;28;19933;-86
2024/03/30 03:31:27;;;;;;;;;;;;;;;11.93;50.19;96312.06;5077841;28;19964;-87
2024/03/30 03:34:13;;;;;;;;;;;;;;;11.91;53.23;96309.69;5069490;28;19924;-87
2024/03/30 03:37:00;;;;;;;;;;;;;;;11.91;51.79;96315.13;5066431;28;20026;-87
2024/03/30 03:39:47;;;;;;;;;;;;;;;11.87;51.21;96310.78;5056851;28;19925;-87
2024/03/30 03:42:34;;;;;;;;;;;;;;;11.85;52.88;96308.41;5060707;28;19924;-87
2024/03/30 03:45:20;;;;;;;;;;;;;;;11.84;53.31;96309.56;5069839;28;20510;-86
2024/03/30 03:48:09;;;;;;;;;;;;;;;11.77;54.27;96317.53;5073319;28;20299;-87
2024/03/30 03:50:55;;;;;;;;;;;;;;;11.74;55.00;96320.97;5049438;28;19925;-87
2024/03/30 03:53:42;;;;;;;;;;;;;;;11.76;54.46;96319.47;5063836;28;20429;-87
2024/03/30 03:56:28;;;;;;;;;;;;;;;11.74;52.86;96310.09;5055942;28;20395;-87
2024/03/30 03:59:16;;;;;;;;;;;;;;;11.71;54.72;96310.81;5063246;28;19925;-87
2024/03/30 04:02:02;;;;;;;;;;;;;;;11.68;54.50;96308.81;5062150;28;20077;-87
2024/03/30 04:04:52;;;;;;;;;;;;;;;11.72;53.27;96312.41;5069599;28;19951;-87
2024/03/30 04:07:38;;;;;;;;;;;;;;;11.71;53.23;96308.09;5055428;28;19976;-79
2024/03/30 04:10:25;;;;;;;;;;;;;;;11.69;53.96;96294.06;5061441;28;20303;-79
2024/03/30 04:13:11;;;;;;;;;;;;;;;11.70;54.06;96293.69;5083891;28;20057;-79
2024/03/30 04:16:01;;;;;;;;;;;;;;;11.67;54.64;96301.81;5069037;28;19982;-79
2024/03/30 04:18:47;;;;;;;;;;;;;;;11.65;54.58;96290.47;5069926;28;19931;-79
2024/03/30 04:21:35;;;;;;;;;;;;;;;11.66;54.57;96292.84;5063637;28;19924;-79
2024/03/30 04:24:22;;;;;;;;;;;;;;;11.67;54.44;96283.56;5081716;28;19955;-79
2024/03/30 04:27:09;;;;;;;;;;;;;;;11.67;55.63;96285.47;5067791;28;20011;-79
2024/03/30 04:29:55;;;;;;;;;;;;;;;11.65;55.50;96287.75;5047879;28;19946;-79
2024/03/30 04:32:43;;;;;;;;;;;;;;;11.64;54.33;96283.47;5077101;28;19931;-79
2024/03/30 04:35:29;;;;;;;;;;;;;;;11.66;53.75;96289.31;5074633;28;19976;-79
2024/03/30 04:38:18;;;;;;;;;;;;;;;11.62;54.67;96286.56;5045990;28;19982;-79
2024/03/30 04:41:05;;;;;;;;;;;;;;;11.62;54.06;96294.72;5072862;28;20287;-79
2024/03/30 04:43:52;;;;;;;;;;;;;;;11.64;54.55;96297.84;5062858;28;20027;-79
2024/03/30 04:46:39;;;;;;;;;;;;;;;11.66;52.80;96298.28;5070231;28;19954;-79
2024/03/30 04:49:26;;;;;;;;;;;;;;;11.67;53.26;96296.38;5070860;28;20007;-79
2024/03/30 04:52:13;;;;;;;;;;;;;;;11.68;52.83;96290.56;5062057;28;19928;-79
2024/03/30 04:55:01;;;;;;;;;;;;;;;11.73;53.04;96284.06;5054538;28;19982;-79
2024/03/30 04:57:48;;;;;;;;;;;;;;;11.70;53.44;96298.34;5065461;28;20395;-79
2024/03/30 05:00:35;;;;;;;;;;;;;;;11.70;54.16;96299.13;5074504;28;19928;-79
2024/03/30 05:03:21;;;;;;;;;;;;;;;11.71;54.04;96286.31;5053534;28;20011;-79
2024/03/30 05:06:08;;;;;;;;;;;;;;;11.69;53.85;96285.91;5058936;28;20471;-79
2024/03/30 05:08:55;;;;;;;;;;;;;;;11.72;54.44;96283.25;5069174;28;19960;-79
2024/03/30 05:11:43;;;;;;;;;;;;;;;11.76;53.99;96280.59;5070165;28;19934;-79
2024/03/30 05:14:30;;;;;;;;;;;;;;;11.79;53.48;96277.16;5064656;28;19931;-79
2024/03/30 05:17:17;;;;;;;;;;;;;;;11.89;52.03;96260.31;5073139;28;19939;-79
2024/03/30 05:23:08;;;;;;;;;;;;;;;12.14;51.61;96249.06;5065913;28;19931;-80
2024/03/30 05:25:56;;;;;;;;;;;;;;;12.21;51.61;96252.72;5075865;28;20578;-80
2024/03/30 05:28:44;;;;;;;;;;;;;;;12.26;52.34;96251.63;5060630;28;19924;-79
2024/03/30 05:31:31;;;;;;;;;;;;;;;12.37;52.08;96254.53;5062282;28;19924;-80
2024/03/30 05:34:18;;;;;;;;;;;;;;;12.37;52.34;96244.44;5075776;28;20538;-80
2024/03/30 05:37:05;;;;;;;;;;;;;;;12.41;51.46;96250.75;5053101;28;20364;-79
2024/03/30 05:39:51;;;;;;;;;;;;;;;12.47;50.00;96256.66;5073370;28;20299;-81
2024/03/30 05:42:39;;;;;;;;;;;;;;;12.50;51.47;96259.44;5052118;28;19998;-88
2024/03/30 05:45:26;;;;;;;;;;;;;;;12.53;51.29;96269.63;5068509;28;19925;-87
2024/03/30 05:48:13;;;;;;;;;;;;;;;12.53;51.93;96275.06;5067005;28;20350;-87
2024/03/30 05:51:01;;;;;;;;;;;;;;;12.51;52.87;96280.06;5076096;28;20473;-87
2024/03/30 05:53:49;;;;;;;;;;;;;;;12.54;53.05;96284.03;5061715;28;20025;-87
2024/03/30 05:56:35;;;;;;;;;;;;;;;12.56;53.27;96287.16;5062358;28;19925;-87
2024/03/30 05:59:23;;;;;;;;;;;;;;;12.57;52.05;96281.38;5072857;28;19924;-87
2024/03/30 06:02:11;;;;;;;;;;;;;;;12.54;53.06;96286.75;5058277;28;20382;-87
2024/03/30 06:04:58;;;;;;;;;;;;;;;12.56;52.48;96287.16;5068608;28;19975;-88
2024/03/30 06:07:44;;;;;;;;;;;;;;;12.51;53.55;96284.72;5049868;28;19932;-87
2024/03/30 06:10:32;;;;;;;;;;;;;;;12.51;53.66;96293.69;5064292;28;20456;-82
2024/03/30 06:13:18;;;;;;;;;;;;;;;12.57;53.26;96289.53;5079838;28;19924;-81
2024/03/30 06:16:06;;;;;;;;;;;;;;;12.61;52.94;96291.50;5073425;28;19966;-80
2024/03/30 06:18:53;;;;;;;;;;;;;;;12.54;54.32;96297.63;5078032;28;19924;-80
2024/03/30 06:21:40;;;;;;;;;;;;;;;12.57;53.20;96286.81;5070151;28;20015;-81
2024/03/30 06:24:27;;;;;;;;;;;;;;;12.66;52.28;96281.09;5064118;28;20506;-80
2024/03/30 06:27:13;;;;;;;;;;;;;;;12.73;51.07;96283.16;5069021;28;19923;-92
2024/03/30 06:30:01;;;;;;;;;;;;;;;12.80;51.77;96283.28;5056978;28;20346;-93
2024/03/30 06:32:48;;;;;;;;;;;;;;;12.84;51.58;96282.19;5063043;28;20638;-93
2024/03/30 06:35:37;;;;;;;;;;;;;;;12.93;52.53;96271.00;5070056;28;19924;-91
2024/03/30 06:38:23;;;;;;;;;;;;;;;12.97;52.51;96280.03;5064719;28;19924;-91
2024/03/30 06:44:16;;;;;;;;;;;;;;;13.04;51.64;96271.97;5079052;28;19928;-78
2024/03/30 06:47:03;;;;;;;;;;;;;;;13.05;49.80;96273.56;5066412;28;19927;-79
2024/03/30 06:49:51;;;;;;;;;;;;;;;13.12;49.87;96267.41;5064450;28;20307;-78
2024/03/30 06:52:41;;;;;;;;;;;;;;;13.15;48.50;96265.88;5074113;28;20330;-77
2024/03/30 06:55:29;;;;;;;;;;;;;;;13.22;48.77;96263.31;5059047;28;19967;-83
2024/03/30 06:58:15;;;;;;;;;;;;;;;13.22;48.57;96258.63;5052290;28;19932;-79
2024/03/30 07:01:04;;;;;;;;;;;;;;;13.18;47.67;96256.97;5079068;28;19964;-79
2024/03/30 07:03:52;;;;;;;;;;;;;;;13.26;47.37;96255.94;5065160;28;19924;-82
2024/03/30 07:06:40;;;;;;;;;;;;;;;13.39;47.26;96257.28;5080717;28;20288;-89
2024/03/30 07:09:29;;;;;;;;;;;;;;;13.47;46.25;96253.50;5069043;23;19931;-86
2024/03/30 07:12:16;;;;;;;;;;;;;;;13.57;46.35;96252.84;5069583;28;19932;-86
2024/03/30 07:15:05;;;;;;;;;;;;;;;13.69;47.90;96261.94;5056133;28;19948;-78
2024/03/30 07:17:54;;;;;;;;;;;;;;;13.73;48.42;96251.88;5074441;28;19932;-80
2024/03/30 07:20:41;;;;;;;;;;;;;;;13.73;48.73;96257.31;5067961;28;19931;-81
2024/03/30 07:23:27;;;;;;;;;;;;;;;13.87;46.60;96258.28;5058565;28;19924;-86
2024/03/30 07:26:19;;;;;;;;;;;;;;;14.00;47.44;96261.53;5078214;28;20307;-94
2024/03/30 07:29:05;;;;;;;;;;;;;;;14.04;47.95;96259.63;5078916;28;19924;-84
2024/03/30 07:31:56;;;;;;;;;;;;;;;14.12;46.86;96257.78;5075833;28;20450;-84
2024/03/30 07:34:45;;;;;;;;;;;;;;;14.20;47.40;96264.88;5064245;28;20027;-85
2024/03/30 07:37:32;;;;;;;;;;;;;;;14.22;48.07;96265.28;5072577;28;19928;-83
2024/03/30 07:40:18;;;;;;;;;;;;;;;14.35;47.50;96265.81;5060063;28;20006;-81
2024/03/30 07:43:07;;;;;;;;;;;;;;;14.40;47.18;96268.19;5071390;28;19924;-81
2024/03/30 07:45:53;;;;;;;;;;;;;;;14.44;45.47;96269.03;5077415;28;20007;-82
2024/03/30 07:48:40;;;;;;;;;;;;;;;14.52;45.61;96270.66;5065086;28;20033;-82
2024/03/30 07:51:27;;;;;;;;;;;;;;;14.62;44.88;96269.19;5069165;28;19930;-85
2024/03/30 07:54:14;;;;;;;;;;;;;;;14.73;45.10;96272.03;5066666;28;19924;-90
2024/03/30 07:57:00;;;;;;;;;;;;;;;14.81;43.85;96260.78;5073501;28;19932;-85
2024/03/30 07:59:49;;;;;;;;;;;;;;;14.93;43.35;96265.16;5050006;28;19928;-81
2024/03/30 08:02:35;;;;;;;;;;;;;;;15.03;42.39;96263.66;5067856;28;19931;-84
2024/03/30 08:05:23;;;;;;;;;;;;;;;15.14;42.11;96262.56;5084060;28;19973;-81
2024/03/30 08:08:09;;;;;;;;;;;;;;;15.25;41.19;96261.84;5078000;28;19924;-80
2024/03/30 08:10:57;;;;;;;;;;;;;;;15.32;42.21;96261.88;5081755;28;19924;-80
2024/03/30 08:13:46;;;;;;;;;;;;;;;15.42;40.90;96250.22;5069433;28;19928;-92
2024/03/30 08:16:35;;;;;;;;;;;;;;;15.51;40.25;96258.09;5049197;28;20401;-79
2024/03/30 08:19:21;;;;;;;;;;;;;;;15.60;41.22;96259.28;5063918;28;19928;-90
2024/03/30 08:22:09;;;;;;;;;;;;;;;15.70;40.46;96255.84;5080913;28;19977;-89
2024/03/30 08:24:56;;;;;;;;;;;;;;;15.79;39.34;96258.25;5071527;28;19929;-83
2024/03/30 08:27:43;;;;;;;;;;;;;;;15.85;39.64;96255.91;5071177;28;19958;-77
2024/03/30 08:30:29;;;;;;;;;;;;;;;15.97;40.12;96247.34;5064417;28;19924;-81
2024/03/30 08:33:18;;;;;;;;;;;;;;;16.08;40.03;96259.09;5065075;28;19924;-85
2024/03/30 08:36:05;;;;;;;;;;;;;;;16.16;39.57;96247.00;5070820;28;19988;-85
2024/03/30 08:38:53;;;;;;;;;;;;;;;16.27;38.78;96249.00;5076933;28;19931;-83
2024/03/30 08:41:39;;;;;;;;;;;;;;;16.34;39.03;96249.00;5073232;28;20024;-78
2024/03/30 08:44:26;;;;;;;;;;;;;;;16.40;38.83;96237.25;5064982;28;20007;-84
2024/03/30 08:47:12;;;;;;;;;;;;;;;16.49;38.09;96243.13;5085121;28;20125;-78
2024/03/30 08:50:01;;;;;;;;;;;;;;;16.59;37.43;96241.59;5095966;28;19928;-80
2024/03/30 08:52:47;;;;;;;;;;;;;;;16.71;39.59;96246.69;5070750;28;19960;-82
2024/03/30 08:55:35;;;;;;;;;;;;;;;16.80;38.94;96245.53;5088238;28;19924;-81
2024/03/30 08:58:21;;;;;;;;;;;;;;;16.88;37.98;96245.13;5077425;28;20427;-80
2024/03/30 09:01:09;;;;;;;;;;;;;;;16.99;35.63;96239.63;5074205;28;19924;-81
2024/03/30 09:03:55;;;;;;;;;;;;;;;17.06;35.73;96234.16;5062329;28;19970;-80
2024/03/30 09:06:44;;;;;;;;;;;;;;;17.19;35.77;96227.06;5060114;28;19924;-79
2024/03/30 09:09:30;;;;;;;;;;;;;;;17.26;36.15;96227.06;5064058;28;19955;-80
2024/03/30 09:12:17;;;;;;;;;;;;;;;17.36;35.04;96219.19;5060399;28;20371;-80
2024/03/30 09:15:06;;;;;;;;;;;;;;;17.51;35.22;96226.19;5077020;28;20022;-80
2024/03/30 09:17:53;;;;;;;;;;;;;;;17.55;35.33;96226.97;5076959;28;19996;-80
2024/03/30 09:20:39;;;;;;;;;;;;;;;17.65;36.84;96217.91;5083753;28;19932;-80
2024/03/30 09:23:28;;;;;;;;;;;;;;;17.71;34.01;96215.53;5043485;28;19925;-80
2024/03/30 09:26:15;;;;;;;;;;;;;;;17.80;35.97;96221.41;5079597;28;20221;-84
2024/03/30 09:29:02;;;;;;;;;;;;;;;17.89;33.52;96218.22;5066433;28;20249;-80
2024/03/30 09:31:49;;;;;;;;;;;;;;;17.97;34.57;96219.75;5063707;28;19924;-81
2024/03/30 09:34:35;;;;;;;;;;;;;;;18.08;34.88;96216.97;5067517;28;20487;-83
2024/03/30 09:37:22;;;;;;;;;;;;;;;18.08;35.09;96220.50;5069177;28;19924;-83
2024/03/30 09:40:11;;;;;;;;;;;;;;;18.13;36.21;96219.28;5061458;28;19993;-86
2024/03/30 09:42:59;;;;;;;;;;;;;;;18.17;35.00;96222.81;5073200;28;20445;-85
2024/03/30 09:45:45;;;;;;;;;;;;;;;18.17;34.95;96218.09;5055235;28;19963;-87
2024/03/30 09:48:33;;;;;;;;;;;;;;;18.23;34.64;96210.19;5067156;28;20562;-85
2024/03/30 09:51:19;;;;;;;;;;;;;;;18.26;32.17;96209.38;5067902;28;20372;-85
2024/03/30 09:54:07;;;;;;;;;;;;;;;18.35;33.41;96206.97;5053304;28;19971;-81
2024/03/30 09:56:54;;;;;;;;;;;;;;;18.42;33.79;96208.88;5076443;28;19993;-79
2024/03/30 09:59:44;;;;;;;;;;;;;;;18.51;33.93;96210.00;5067866;28;20297;-79
2024/03/30 10:02:31;;;;;;;;;;;;;;;18.59;33.98;96208.75;5067663;28;20566;-78
2024/03/30 10:05:18;;;;;;;;;;;;;;;18.66;33.70;96205.16;5049584;28;19925;-77
2024/03/30 10:08:05;;;;;;;;;;;;;;;18.73;31.83;96205.13;5063970;28;19932;-79
2024/03/30 10:10:54;;;;;;;;;;;;;;;18.83;33.39;96197.97;5064188;28;19925;-77
2024/03/30 10:13:42;;;;;;;;;;;;;;;18.91;33.28;96193.16;5058779;28;19932;-78
2024/03/30 10:16:29;;;;;;;;;;;;;;;18.98;32.27;96198.63;5066918;28;19924;-78
2024/03/30 10:19:15;;;;;;;;;;;;;;;19.03;33.74;96196.22;5066902;28;19932;-79
2024/03/30 10:22:03;;;;;;;;;;;;;;;19.09;31.80;96188.28;5051762;28;20314;-76
2024/03/30 10:24:49;;;;;;;;;;;;;;;19.20;32.90;96188.97;5066678;28;19928;-79
2024/03/30 10:27:36;;;;;;;;;;;;;;;19.30;34.19;96188.06;5067540;28;20451;-77
2024/03/30 10:30:25;;;;;;;;;;;;;;;19.32;33.04;96187.66;5047453;28;19928;-78
2024/03/30 10:33:14;;;;;;;;;;;;;;;19.36;34.25;96182.88;5076241;28;19924;-76
2024/03/30 10:36:00;;;;;;;;;;;;;;;19.36;31.87;96180.13;5064223;28;20009;-75
2024/03/30 10:38:47;;;;;;;;;;;;;;;19.37;32.07;96176.19;5058934;28;19928;-79
2024/03/30 10:41:33;;;;;;;;;;;;;;;19.38;31.83;96178.50;5059322;28;19971;-79
2024/03/30 10:44:22;;;;;;;;;;;;;;;19.41;31.41;96174.19;5054312;28;20058;-78
2024/03/30 10:47:11;;;;;;;;;;;;;;;19.38;33.61;96170.25;5063473;28;19928;-76
2024/03/30 10:49:57;;;;;;;;;;;;;;;19.37;33.33;96171.44;5070498;28;19924;-77
2024/03/30 10:52:44;;;;;;;;;;;;;;;19.35;33.76;96168.34;5063738;28;19924;-76
2024/03/30 10:55:31;;;;;;;;;;;;;;;19.36;33.65;96172.66;5053539;28;19932;-77
2024/03/30 10:58:18;;;;;;;;;;;;;;;19.30;32.30;96163.28;5060825;28;19930;-84
2024/03/30 11:01:05;;;;;;;;;;;;;;;19.33;32.68;96170.75;5069846;28;19977;-86
2024/03/30 11:03:53;;;;;;;;;;;;;;;19.32;32.75;96165.63;5078964;28;20256;-83
2024/03/30 11:06:40;;;;;;;;;;;;;;;19.31;32.17;96159.34;5060422;28;19925;-88
2024/03/30 11:09:28;;;;;;;;;;;;;;;19.32;31.90;96163.66;5059141;28;20015;-83
2024/03/30 11:12:15;;;;;;;;;;;;;;;19.33;33.68;96164.41;5072192;28;20015;-86
2024/03/30 11:15:04;;;;;;;;;;;;;;;19.33;33.15;96159.72;5065893;28;20300;-79
2024/03/30 11:17:52;;;;;;;;;;;;;;;19.32;31.84;96158.13;5061687;28;19928;-79
2024/03/30 11:20:43;;;;;;;;;;;;;;;19.32;32.95;96151.84;5060374;28;19985;-80
2024/03/30 11:23:34;;;;;;;;;;;;;;;19.32;34.92;96162.88;5052892;28;19939;-84
2024/03/30 11:26:22;;;;;;;;;;;;;;;19.31;33.38;96151.06;5057680;28;19931;-86
2024/03/30 11:29:10;;;;;;;;;;;;;;;19.28;34.56;96151.91;5061055;28;19970;-95
2024/03/30 11:31:59;;;;;;;;;;;;;;;19.23;33.66;96149.59;5059899;28;19932;-82
2024/03/30 11:34:50;;;;;;;;;;;;;;;19.20;32.80;96144.91;5070116;28;19928;-84
2024/03/30 11:37:39;;;;;;;;;;;;;;;19.21;34.47;96140.97;5065711;28;20062;-86
2024/03/30 11:40:29;;;;;;;;;;;;;;;19.18;34.19;96146.53;5061567;28;19932;-83
2024/03/30 11:43:18;;;;;;;;;;;;;;;19.18;32.81;96135.53;5069213;28;19934;-82
2024/03/30 11:46:06;;;;;;;;;;;;;;;19.15;32.21;96137.09;5080400;28;19928;-83
2024/03/30 11:48:52;;;;;;;;;;;;;;;19.16;31.43;96132.38;5072601;28;19931;-86
2024/03/30 11:51:39;;;;;;;;;;;;;;;19.16;32.84;96122.16;5070653;28;19924;-90
2024/03/30 11:54:27;;;;;;;;;;;;;;;19.21;32.41;96126.41;5073508;28;19928;-84
2024/03/30 11:57:16;;;;;;;;;;;;;;;19.23;33.41;96130.34;5068601;28;19931;-86
2024/03/30 12:00:03;;;;;;;;;;;;;;;19.22;31.48;96128.75;5057061;28;19932;-85
2024/03/30 12:02:51;;;;;;;;;;;;;;;19.22;32.68;96126.00;5075660;28;19928;-86
2024/03/30 12:05:41;;;;;;;;;;;;;;;19.25;32.40;96125.19;5063386;28;19931;-86
2024/03/30 12:08:28;;;;;;;;;;;;;;;19.30;35.25;96133.00;5072404;28;19924;-81
2024/03/30 12:11:17;;;;;;;;;;;;;;;19.32;32.84;96119.59;5066256;28;19928;-80
2024/03/30 12:14:04;;;;;;;;;;;;;;;19.33;32.45;96114.84;5066309;28;19924;-80
2024/03/30 12:16:51;;;;;;;;;;;;;;;19.35;34.03;96118.78;5068363;28;19960;-80
2024/03/30 12:19:39;;;;;;;;;;;;;;;19.32;32.55;96116.84;5065484;28;20442;-80
2024/03/30 12:22:26;;;;;;;;;;;;;;;19.33;34.13;96110.16;5072402;28;20001;-80
2024/03/30 12:25:14;;;;;;;;;;;;;;;19.34;32.47;96117.22;5078432;28;19924;-79
2024/03/30 12:28:02;;;;;;;;;;;;;;;19.32;31.83;96111.31;5048677;28;19928;-80
2024/03/30 12:30:50;;;;;;;;;;;;;;;19.30;31.36;96113.72;5069385;28;19954;-80
2024/03/30 12:33:36;;;;;;;;;;;;;;;19.31;31.62;96109.00;5051032;28;20065;-79
2024/03/30 12:36:23;;;;;;;;;;;;;;;19.27;32.17;96105.50;5065567;28;19924;-90
2024/03/30 12:39:10;;;;;;;;;;;;;;;19.26;32.85;96106.69;5071025;28;19924;-87
2024/03/30 12:41:57;;;;;;;;;;;;;;;19.23;32.63;96104.75;5060294;28;20011;-85
2024/03/30 12:44:45;;;;;;;;;;;;;;;19.21;32.23;96094.16;5076856;28;19928;-86
2024/03/30 12:47:32;;;;;;;;;;;;;;;19.22;32.20;96103.19;5053336;28;19963;-85
2024/03/30 12:50:19;;;;;;;;;;;;;;;19.20;30.93;96089.84;5068751;28;19967;-87
2024/03/30 12:53:07;;;;;;;;;;;;;;;19.21;31.84;96094.16;5069413;28;19954;-86
2024/03/30 12:55:54;;;;;;;;;;;;;;;19.19;31.86;96088.31;5064311;28;19977;-87
2024/03/30 12:58:41;;;;;;;;;;;;;;;19.21;34.04;96096.91;5060509;28;19924;-87
2024/03/30 13:01:29;;;;;;;;;;;;;;;19.23;32.86;96094.56;5069686;28;19924;-87
2024/03/30 13:04:16;;;;;;;;;;;;;;;19.28;33.13;96102.34;5059287;28;19982;-87
2024/03/30 13:07:04;;;;;;;;;;;;;;;19.34;31.73;96092.44;5064702;28;20367;-87
2024/03/30 13:09:51;;;;;;;;;;;;;;;19.42;31.37;96086.84;5050620;28;20038;-87
2024/03/30 13:12:38;;;;;;;;;;;;;;;19.50;32.37;96085.56;5072695;28;19924;-87
2024/03/30 13:15:26;;;;;;;;;;;;;;;19.55;31.74;96093.38;5065182;28;19977;-85
2024/03/30 13:18:14;;;;;;;;;;;;;;;19.59;31.71;96083.88;5065913;28;19924;-85
2024/03/30 13:21:03;;;;;;;;;;;;;;;19.62;31.43;96088.56;5072033;28;19928;-85
2024/03/30 13:23:50;;;;;;;;;;;;;;;19.63;31.56;96081.06;5062558;28;20423;-84
2024/03/30 13:26:38;;;;;;;;;;;;;;;19.65;31.43;96081.41;5063632;28;20421;-84
2024/03/30 13:29:29;;;;;;;;;;;;;;;19.57;32.13;96068.94;5068514;28;19928;-85
2024/03/30 13:32:17;;;;;;;;;;;;;;;19.66;32.51;96077.50;5063290;28;19924;-84
2024/03/30 13:35:07;;;;;;;;;;;;;;;19.66;34.91;96080.25;5065432;28;19954;-85
2024/03/30 13:37:54;;;;;;;;;;;;;;;19.66;33.59;96074.75;5068021;28;19932;-84
2024/03/30 13:40:42;;;;;;;;;;;;;;;19.65;32.50;96069.63;5068444;28;19925;-85
2024/03/30 13:43:29;;;;;;;;;;;;;;;19.65;32.89;96064.88;5059889;28;20002;-84
2024/03/30 13:46:17;;;;;;;;;;;;;;;19.65;33.68;96075.13;5068496;28;19931;-84
2024/03/30 13:49:04;;;;;;;;;;;;;;;19.63;32.17;96067.28;5075145;28;19931;-85
2024/03/30 13:51:52;;;;;;;;;;;;;;;19.61;31.92;96070.47;5063163;28;20019;-85
2024/03/30 13:54:42;;;;;;;;;;;;;;;19.61;32.17;96064.19;5065257;28;19970;-85
2024/03/30 13:57:28;;;;;;;;;;;;;;;19.59;32.24;96067.34;5050690;28;20452;-87
2024/03/30 14:00:16;;;;;;;;;;;;;;;19.57;32.19;96066.16;5066117;28;20003;-86
2024/03/30 14:03:03;;;;;;;;;;;;;;;19.56;33.60;96068.16;5070266;28;20015;-87
2024/03/30 14:05:50;;;;;;;;;;;;;;;19.57;34.25;96068.94;5064417;28;19925;-86
2024/03/30 14:08:38;;;;;;;;;;;;;;;19.57;33.31;96058.69;5055023;28;19946;-85
2024/03/30 14:11:25;;;;;;;;;;;;;;;19.56;32.47;96062.66;5076656;28;19995;-87
2024/03/30 14:14:14;;;;;;;;;;;;;;;19.58;32.44;96053.94;5057691;28;19978;-86
2024/03/30 14:17:05;;;;;;;;;;;;;;;19.61;32.93;96050.41;5066624;28;20179;-87
2024/03/30 14:19:54;;;;;;;;;;;;;;;19.62;32.82;96050.00;5053453;28;19931;-84
2024/03/30 14:22:42;;;;;;;;;;;;;;;19.66;32.26;96049.16;5076797;28;19993;-87
2024/03/30 14:25:33;;;;;;;;;;;;;;;19.70;32.55;96049.88;5080251;28;19924;-86
2024/03/30 14:28:21;;;;;;;;;;;;;;;19.71;32.36;96048.66;5051539;28;19932;-86
2024/03/30 14:31:07;;;;;;;;;;;;;;;19.78;31.76;96052.13;5078886;28;20413;-86
2024/03/30 14:33:55;;;;;;;;;;;;;;;19.80;31.15;96049.72;5063126;28;19925;-85
2024/03/30 14:36:41;;;;;;;;;;;;;;;19.83;30.93;96042.59;5060224;28;19931;-89
2024/03/30 14:39:28;;;;;;;;;;;;;;;19.85;30.92;96046.50;5067532;28;19931;-85